Holmes City, Minnesota
Current Conditions -  °F | °C
As of 6:53 PM on Wednesday 26 Nov 2014 (Local Time) from KAXN Reporting Station
Clear Clear  
Wind Chill: -13°   Ceiling: Unl
Heat Index:   Visibility: 10mi
Dew Point: -7°   Wind: 13mph
Humidity: 60%   Direction: 340°NNW
Pressure: 30.37"   Gusts: NA
Location:  45.83°N, 95.54°W
Report Text: KAXN 270053Z AUTO 34011KT 10SM CLR M16/M22 A3037 RMK AO2 SLP319 T11561217
Loading
Personal Weather Stations






























Interactive Weather Map New forecast layout! Learn more

10-Day Weather Forecast

Advertisements
Track Severe Weather on mobile